KMYR/MYR METAR and TAF weather

Enter ICAO airport designator
Station Type Date Time Source
KMYR METAR 2022/06/29 23:56 UTC NOAA

KMYR 292356Z 00000KT 10SM FEW037 26/22 A3022 RMK AO2 SLP233 60000 T02610222 10278 20261 51004


Station Type Date Time Source
KMYR Decoded METAR 2022/06/29 23:56 UTC NOAA

Myrtle Beach Air Force Base, SC, United States (KMYR) 33-41N 078-56W 8M
Jun 29, 2022 - 07:56 PM EDT / 2022.06.29 2356 UTC
Wind: Calm:0
Visibility: 10 mile(s):0
Sky conditions: mostly clear
Temperature: 79.0 F (26.1 C)
Dew Point: 72.0 F (22.2 C)
Relative Humidity: 79%
Pressure (altimeter): 30.22 in. Hg (1023 hPa)
Pressure tendency: 0.01 inches (0.4 hPa) higher than three hours ago
ob: KMYR 292356Z 00000KT 10SM FEW037 26/22 A3022 RMK AO2 SLP233 60000 T02610222 10278 20261 51004
cycle: 0

Station Type Date Time Source
KMYR TAF 2022/06/29 21:42 UTC NOAA

TAF
AMD KMYR 292038Z 2921/3018 16004KT P6SM VCSH SCT040 OVC130
TEMPO 2921/2922 6SM -SHRA BR SCT030 OVC045
FM300100 VRB04KT P6SM BKN120
FM301600 11006KT P6SM SCT120

Example: see airport list